^^
Meteo Knjazevac Station Historical Data
Daily Summary for February 6, 2021 Units:  English    Metric   Both
Daily Weekly Monthly Yearly Custom
  High: Low: Average:
Temperature: 83.8 °F 61.9 °F 73.1 °F
Dew Point: 62.5 °F 54.2 °F 60.1 °F
Humidity: 89% 45% 66%
Wind Speed: 12mph 0mph 4.3mph
Wind Gust: 21mph - -
Wind- - WSW
Pressure: 29.95 in 29.81 in -
Precipitation: 0.00 in    
Historical Graphs
 
 
Tabular Data for February 6, 2021
Time Temperature Dew Point Pressure Wind Wind Speed Wind Gust Humidity Rainfall Rate (Hourly) solar Conditions
00:00 69.4 °F 62.3 °F 29.81 in SSE 1 mph 4 mph 78% 0.00 in 0 W/m2
00:10 69.1 °F 62.3 °F 29.81 in NW 2 mph 4 mph 79% 0.00 in 0 W/m2
00:20 68.9 °F 62.1 °F 29.81 in Calm   4 mph 79% 0.00 in 0 W/m2
00:30 68.7 °F 62.3 °F 29.81 in Calm   3 mph 80% 0.00 in 0 W/m2
00:40 68.4 °F 61.6 °F 29.81 in North 1 mph 3 mph 79% 0.00 in 0 W/m2
00:50 68.2 °F 62.1 °F 29.81 in WNW 1 mph 2 mph 81% 0.00 in 0 W/m2
01:00 67.8 °F 61.8 °F 29.81 in WNW 2 mph 3 mph 81% 0.00 in 0 W/m2
01:10 67.6 °F 61.6 °F 29.81 in NNW 1 mph 5 mph 81% 0.00 in 0 W/m2
01:20 67.5 °F 62.1 °F 29.81 in WNW 2 mph 4 mph 83% 0.00 in 0 W/m2
01:30 67.3 °F 61.9 °F 29.81 in WNW 2 mph 5 mph 83% 0.00 in 0 W/m2
01:40 66.9 °F 61.9 °F 29.81 in West 2 mph 5 mph 84% 0.00 in 0 W/m2
01:50 66.7 °F 61.7 °F 29.81 in NW 2 mph 4 mph 84% 0.00 in 0 W/m2
02:00 66.4 °F 61.4 °F 29.81 in West 2 mph 7 mph 84% 0.00 in 0 W/m2
02:10 66.2 °F 61.2 °F 29.82 in WSW 2 mph 5 mph 84% 0.00 in 0 W/m2
02:20 66 °F 61 °F 29.82 in WSW 2 mph 5 mph 84% 0.00 in 0 W/m2
02:30 66.1 °F 61.1 °F 29.82 in West 1 mph 3 mph 84% 0.00 in 0 W/m2
02:40 66.4 °F 61.4 °F 29.82 in NNW 2 mph 3 mph 84% 0.00 in 0 W/m2
02:50 66.4 °F 61.4 °F 29.82 in West 2 mph 2 mph 84% 0.00 in 0 W/m2
03:00 66.6 °F 61.2 °F 29.82 in North 1 mph 5 mph 83% 0.00 in 0 W/m2
03:10 66.7 °F 61.4 °F 29.83 in NE 1 mph 4 mph 83% 0.00 in 0 W/m2
03:20 66.6 °F 61.6 °F 29.83 in WNW 2 mph 4 mph 84% 0.00 in 0 W/m2
03:30 66.4 °F 61.7 °F 29.83 in West 3 mph 5 mph 85% 0.00 in 0 W/m2
03:40 66.4 °F 61.4 °F 29.83 in WNW 1 mph 5 mph 84% 0.00 in 0 W/m2
03:50 66.4 °F 61.4 °F 29.83 in SW 2 mph 6 mph 84% 0.00 in 0 W/m2
04:00 66.2 °F 61.2 °F 29.83 in WSW 3 mph 7 mph 84% 0.00 in 0 W/m2
04:10 66.3 °F 61.4 °F 29.84 in West 3 mph 7 mph 84% 0.00 in 0 W/m2
04:20 66.4 °F 61.4 °F 29.84 in West 1 mph 6 mph 84% 0.00 in 0 W/m2
04:30 66.2 °F 61.2 °F 29.84 in SW 1 mph 2 mph 84% 0.00 in 0 W/m2
04:40 65.8 °F 60.9 °F 29.84 in West 1 mph 3 mph 84% 0.00 in 0 W/m2
04:50 65.7 °F 61 °F 29.84 in NNE 2 mph 3 mph 85% 0.00 in 0 W/m2
05:00 65.5 °F 60.9 °F 29.85 in NE 1 mph 3 mph 85% 0.00 in 0 W/m2
05:10 65.3 °F 60.7 °F 29.85 in North 1 mph 3 mph 85% 0.00 in 0 W/m2
05:20 64.9 °F 60.6 °F 29.85 in Calm   3 mph 86% 0.00 in 0 W/m2
05:30 64.8 °F 60.5 °F 29.86 in Calm   2 mph 86% 0.00 in 4 W/m2
05:40 64.8 °F 61.1 °F 29.86 in Calm   4 mph 88% 0.00 in 8 W/m2
05:50 64.6 °F 60.9 °F 29.86 in SW 1 mph 3 mph 88% 0.00 in 16 W/m2
06:00 64.4 °F 60.8 °F 29.86 in NE 1 mph 3 mph 88% 0.00 in 30 W/m2
06:10 64.2 °F 60.9 °F 29.86 in SSW 2 mph 6 mph 89% 0.00 in 40 W/m2
06:20 64.4 °F 61.1 °F 29.86 in SSW 2 mph 6 mph 89% 0.00 in 44 W/m2
06:30 64.4 °F 61.1 °F 29.87 in SSE 1 mph 5 mph 89% 0.00 in 53 W/m2
06:40 64.7 °F 61.4 °F 29.87 in ENE 1 mph 3 mph 89% 0.00 in 58 W/m2
06:50 65.1 °F 61.8 °F 29.88 in North 1 mph 2 mph 89% 0.00 in 83 W/m2
07:00 65.7 °F 62.3 °F 29.88 in WNW 2 mph 4 mph 89% 0.00 in 87 W/m2
07:10 66.2 °F 62.5 °F 29.88 in SW 6 mph 10 mph 88% 0.00 in 79 W/m2
07:20 66.9 °F 61.9 °F 29.88 in WSW 8 mph 12 mph 84% 0.00 in 106 W/m2
07:30 67.3 °F 61.2 °F 29.88 in SW 6 mph 13 mph 81% 0.00 in 126 W/m2
07:40 67.6 °F 61.2 °F 29.88 in SW 6 mph 13 mph 80% 0.00 in 160 W/m2
07:50 68 °F 61.2 °F 29.88 in WSW 5 mph 13 mph 79% 0.00 in 383 W/m2
08:00 68.4 °F 61.2 °F 29.88 in West 6 mph 13 mph 78% 0.00 in 414 W/m2
08:10 68.7 °F 61.2 °F 29.88 in West 7 mph 12 mph 77% 0.00 in 444 W/m2
08:20 69.3 °F 61 °F 29.88 in West 6 mph 11 mph 75% 0.00 in 475 W/m2
08:30 69.8 °F 61.1 °F 29.88 in WSW 6 mph 12 mph 74% 0.00 in 505 W/m2
08:40 70.5 °F 61.4 °F 29.88 in West 8 mph 14 mph 73% 0.00 in 534 W/m2
08:50 70.7 °F 61.2 °F 29.88 in West 7 mph 14 mph 72% 0.00 in 563 W/m2
09:00 71.4 °F 61.1 °F 29.88 in West 7 mph 14 mph 70% 0.00 in 591 W/m2
09:10 72.7 °F 61.5 °F 29.88 in West 7 mph 15 mph 68% 0.00 in 619 W/m2
09:20 73.4 °F 60.9 °F 29.88 in West 8 mph 13 mph 65% 0.00 in 645 W/m2
09:30 74.1 °F 61.6 °F 29.88 in WSW 6 mph 12 mph 65% 0.00 in 671 W/m2
09:40 74.6 °F 61.2 °F 29.88 in WSW 8 mph 12 mph 63% 0.00 in 696 W/m2
09:50 75.2 °F 61.7 °F 29.87 in WSW 7 mph 13 mph 63% 0.00 in 720 W/m2
10:00 75.6 °F 61.6 °F 29.87 in WSW 9 mph 14 mph 62% 0.00 in 742 W/m2
10:10 76.3 °F 62.3 °F 29.87 in WSW 7 mph 13 mph 62% 0.00 in 764 W/m2
10:20 76.6 °F 61.7 °F 29.87 in WSW 8 mph 13 mph 60% 0.00 in 784 W/m2
10:30 77.2 °F 61.7 °F 29.87 in WSW 7 mph 12 mph 59% 0.00 in 803 W/m2
10:40 77.4 °F 61.9 °F 29.88 in West 7 mph 13 mph 59% 0.00 in 821 W/m2
10:50 77.9 °F 61.4 °F 29.87 in WSW 8 mph 12 mph 57% 0.00 in 161 W/m2
11:00 78.3 °F 61.8 °F 29.87 in WSW 7 mph 12 mph 57% 0.00 in 852 W/m2
11:10 78.4 °F 61.9 °F 29.87 in WSW 8 mph 15 mph 57% 0.00 in 139 W/m2
11:20 78.4 °F 61.9 °F 29.88 in WSW 6 mph 15 mph 57% 0.00 in 552 W/m2
11:30 78.4 °F 61.9 °F 29.87 in West 9 mph 15 mph 57% 0.00 in 813 W/m2
11:40 78.6 °F 61.1 °F 29.87 in WSW 9 mph 16 mph 55% 0.00 in 309 W/m2
11:50 79 °F 60.9 °F 29.87 in WSW 9 mph 15 mph 54% 0.00 in 906 W/m2
12:00 79.5 °F 60.9 °F 29.86 in WSW 8 mph 15 mph 53% 0.00 in 912 W/m2
12:10 80 °F 61.9 °F 29.86 in WSW 8 mph 15 mph 54% 0.00 in 917 W/m2
12:20 80.1 °F 61.4 °F 29.86 in WSW 7 mph 18 mph 53% 0.00 in 920 W/m2
12:30 80.4 °F 61.7 °F 29.86 in WSW 9 mph 15 mph 53% 0.00 in 922 W/m2
12:40 80.6 °F 61.3 °F 29.86 in WSW 10 mph 16 mph 52% 0.00 in 922 W/m2
12:50 80.6 °F 61.4 °F 29.86 in WSW 10 mph 19 mph 52% 0.00 in 920 W/m2
13:00 80.8 °F 61.5 °F 29.86 in WSW 12 mph 20 mph 52% 0.00 in 917 W/m2
13:10 80.8 °F 61.5 °F 29.86 in WSW 9 mph 17 mph 52% 0.00 in 912 W/m2
13:20 81.3 °F 62 °F 29.86 in WSW 10 mph 15 mph 52% 0.00 in 906 W/m2
13:30 81.7 °F 62.3 °F 29.85 in WSW 9 mph 17 mph 52% 0.00 in 898 W/m2
13:40 81.3 °F 62 °F 29.85 in West 10 mph 20 mph 52% 0.00 in 889 W/m2
13:50 81.9 °F 61.4 °F 29.85 in WSW 10 mph 20 mph 50% 0.00 in 878 W/m2
14:00 82.2 °F 61.7 °F 29.85 in West 9 mph 17 mph 50% 0.00 in 866 W/m2
14:10 82 °F 61 °F 29.84 in WSW 6 mph 21 mph 49% 0.00 in 852 W/m2
14:20 82.4 °F 61.9 °F 29.85 in WSW 8 mph 18 mph 50% 0.00 in 837 W/m2
14:30 82.6 °F 61.5 °F 29.84 in WSW 8 mph 13 mph 49% 0.00 in 820 W/m2
14:40 82.9 °F 61.2 °F 29.84 in WSW 6 mph 12 mph 48% 0.00 in 803 W/m2
14:50 83.1 °F 61.4 °F 29.84 in West 7 mph 13 mph 48% 0.00 in 784 W/m2
15:00 83.1 °F 61.4 °F 29.84 in WSW 6 mph 16 mph 48% 0.00 in 763 W/m2
15:10 83.5 °F 61.1 °F 29.84 in West 8 mph 16 mph 47% 0.00 in 742 W/m2
15:20 83.3 °F 61 °F 29.84 in West 5 mph 14 mph 47% 0.00 in 719 W/m2
15:30 83.3 °F 61 °F 29.84 in West 8 mph 15 mph 47% 0.00 in 674 W/m2
15:40 83.1 °F 60.8 °F 29.84 in WSW 8 mph 15 mph 47% 0.00 in 288 W/m2
15:50 82.8 °F 61.1 °F 29.84 in West 5 mph 15 mph 48% 0.00 in 250 W/m2
16:00 82.8 °F 59.3 °F 29.84 in NW 7 mph 17 mph 45% 0.00 in 618 W/m2
16:10 82.6 °F 60.3 °F 29.85 in NNW 7 mph 12 mph 47% 0.00 in 195 W/m2
16:20 82.2 °F 60 °F 29.84 in NW 9 mph 16 mph 47% 0.00 in 253 W/m2
16:30 82.4 °F 58.9 °F 29.85 in WNW 7 mph 14 mph 45% 0.00 in 533 W/m2
16:40 82.8 °F 59.3 °F 29.85 in WNW 6 mph 15 mph 45% 0.00 in 504 W/m2
16:50 83.3 °F 59.7 °F 29.85 in WNW 7 mph 13 mph 45% 0.00 in 474 W/m2
17:00 83.1 °F 59.6 °F 29.85 in West 9 mph 14 mph 45% 0.00 in 443 W/m2
17:10 83.1 °F 60.8 °F 29.85 in West 6 mph 16 mph 47% 0.00 in 413 W/m2
17:20 83.8 °F 60.2 °F 29.85 in NW 6 mph 12 mph 45% 0.00 in 382 W/m2
17:30 83.6 °F 60.1 °F 29.85 in NW 6 mph 13 mph 45% 0.00 in 351 W/m2
17:40 83.3 °F 59.7 °F 29.86 in West 6 mph 12 mph 45% 0.00 in 320 W/m2
17:50 82.9 °F 59.4 °F 29.86 in WNW 6 mph 12 mph 45% 0.00 in 289 W/m2
18:00 82.6 °F 60.3 °F 29.86 in NW 6 mph 13 mph 47% 0.00 in 172 W/m2
18:10 81.7 °F 58.3 °F 29.86 in NW 5 mph 12 mph 45% 0.00 in 90 W/m2
18:20 80.8 °F 58.6 °F 29.86 in NNW 5 mph 12 mph 47% 0.00 in 67 W/m2
18:30 80.1 °F 58 °F 29.87 in NNW 3 mph 7 mph 47% 0.00 in 70 W/m2
18:40 80.1 °F 58.6 °F 29.87 in NW 3 mph 8 mph 48% 0.00 in 130 W/m2
18:50 79.9 °F 58.4 °F 29.87 in WNW 5 mph 12 mph 48% 0.00 in 97 W/m2
19:00 79.7 °F 58.3 °F 29.87 in WNW 2 mph 9 mph 48% 0.00 in 78 W/m2
19:10 79.3 °F 57.9 °F 29.87 in WNW 3 mph 8 mph 48% 0.00 in 57 W/m2
19:20 79 °F 58.2 °F 29.87 in WNW 2 mph 8 mph 49% 0.00 in 33 W/m2
19:30 78.3 °F 57.5 °F 29.88 in WNW 2 mph 7 mph 49% 0.00 in 18 W/m2
19:40 77.7 °F 57.6 °F 29.88 in NW 1 mph 6 mph 50% 0.00 in 10 W/m2
19:50 77 °F 58 °F 29.88 in NNW 2 mph 6 mph 52% 0.00 in 0 W/m2
20:00 76.3 °F 57.4 °F 29.88 in NNW 1 mph 4 mph 52% 0.00 in 0 W/m2
20:10 75.6 °F 57.7 °F 29.88 in WNW 2 mph 5 mph 54% 0.00 in 0 W/m2
20:20 74.7 °F 57.4 °F 29.89 in WNW 2 mph 5 mph 55% 0.00 in 0 W/m2
20:30 73.9 °F 57.7 °F 29.89 in West 2 mph 7 mph 57% 0.00 in 0 W/m2
20:40 73.2 °F 57 °F 29.90 in West 3 mph 7 mph 57% 0.00 in 0 W/m2
20:50 72.3 °F 57.2 °F 29.90 in West 2 mph 6 mph 59% 0.00 in 0 W/m2
21:00 71.4 °F 57.7 °F 29.91 in SW 1 mph 3 mph 62% 0.00 in 0 W/m2
21:10 70.5 °F 56.8 °F 29.91 in Calm   3 mph 62% 0.00 in 0 W/m2
21:20 69.8 °F 56.6 °F 29.91 in NW 1 mph 2 mph 63% 0.00 in 0 W/m2
21:30 69 °F 56.4 °F 29.91 in WSW 2 mph 3 mph 64% 0.00 in 0 W/m2
21:40 68 °F 55.8 °F 29.91 in Calm   4 mph 65% 0.00 in 0 W/m2
21:50 67.5 °F 56.1 °F 29.92 in SW 1 mph 2 mph 67% 0.00 in 0 W/m2
22:00 66.9 °F 55.6 °F 29.92 in Calm   2 mph 67% 0.00 in 0 W/m2
22:10 66.4 °F 55.5 °F 29.92 in SSE 1 mph 2 mph 68% 0.00 in 0 W/m2
22:20 65.8 °F 55.4 °F 29.92 in South 1 mph 3 mph 69% 0.00 in 0 W/m2
22:30 65.5 °F 55.4 °F 29.93 in WSW 1 mph 3 mph 70% 0.00 in 0 W/m2
22:40 64.8 °F 55.5 °F 29.93 in West 1 mph 3 mph 72% 0.00 in 0 W/m2
22:50 64.2 °F 55.4 °F 29.94 in WNW 3 mph 6 mph 73% 0.00 in 0 W/m2
23:00 64 °F 54.8 °F 29.94 in WNW 1 mph 6 mph 72% 0.00 in 0 W/m2
23:10 63.7 °F 54.9 °F 29.94 in WSW 1 mph 2 mph 73% 0.00 in 0 W/m2
23:20 63.1 °F 54.7 °F 29.94 in WSW 1 mph 2 mph 74% 0.00 in 0 W/m2
23:30 62.8 °F 54.7 °F 29.94 in WNW 1 mph 2 mph 75% 0.00 in 0 W/m2
23:40 62.2 °F 54.2 °F 29.95 in Calm   2 mph 75% 0.00 in 0 W/m2
23:50 61.9 °F 54.6 °F 29.95 in Calm   2 mph 77% 0.00 in 0 W/m2
Knjazevac, Serbia
Compliments of Weather Underground - 2 mb